Samoset, Florida
Current Conditions -  °F | °C
As of 2:53 PM on Sunday 23 Nov 2014 (Local Time) from KSRQ Reporting Station
Clear Clear  
Wind Chill: 81°   Ceiling: Unl
Heat Index: 85°   Visibility: 10mi
Dew Point: 72°   Wind: 24mph
Humidity: 74%   Direction: 180°S
Pressure: 29.86"   Gusts: 32mph
Location:  27.4788°N, 82.5343°W
Report Text: KSRQ 231953Z 18021G28KT 10SM CLR 27/22 A2986 RMK AO2 PK WND 18032/1913 SLP110 T02720222
Loading
Personal Weather Stations






























Interactive Weather Map New forecast layout! Learn more

10-Day Weather Forecast

Advertisements
Track Severe Weather on mobile